createdAt,value
2019-03-15T00:01:44.057Z,10.10
2019-03-15T00:04:13.570Z,10.27
2019-03-15T00:06:43.014Z,10.63
2019-03-15T00:09:12.510Z,12.87
2019-03-15T00:11:41.953Z,12.67
2019-03-15T00:14:11.422Z,13.07
2019-03-15T00:16:40.858Z,11.47
2019-03-15T00:19:10.391Z,11.13
2019-03-15T00:21:39.953Z,12.37
2019-03-15T00:24:09.507Z,10.80
2019-03-15T00:26:38.926Z,12.27
2019-03-15T00:29:08.474Z,14.63
2019-03-15T00:31:38.030Z,11.40
2019-03-15T00:34:07.521Z,13.87
2019-03-15T00:36:36.995Z,11.80
2019-03-15T00:39:07.187Z,21.03
2019-03-15T00:41:36.599Z,12.80
2019-03-15T00:44:06.177Z,15.97
2019-03-15T00:46:35.671Z,15.10
2019-03-15T00:49:05.162Z,14.70
2019-03-15T00:51:34.587Z,18.43
2019-03-15T00:54:04.158Z,15.37
2019-03-15T00:56:33.562Z,15.97
2019-03-15T00:59:03.032Z,20.90
2019-03-15T01:01:32.535Z,15.67
2019-03-15T01:04:02.037Z,16.30
2019-03-15T01:06:31.585Z,12.70
2019-03-15T01:09:01.150Z,10.57
2019-03-15T01:11:30.665Z,15.47
2019-03-15T01:14:00.149Z,8.70
2019-03-15T01:16:29.644Z,8.00
2019-03-15T01:18:59.141Z,13.40
2019-03-15T01:21:28.696Z,7.63
2019-03-15T01:23:58.208Z,7.87
2019-03-15T01:26:27.765Z,6.10
2019-03-15T01:28:57.198Z,7.23
2019-03-15T01:31:26.689Z,5.20
2019-03-15T01:33:56.191Z,8.77
2019-03-15T01:36:25.711Z,4.77
2019-03-15T01:38:55.126Z,6.27
2019-03-15T01:41:24.702Z,7.73
2019-03-15T01:43:54.162Z,8.73
2019-03-15T01:46:23.663Z,6.83
2019-03-15T01:48:53.113Z,5.73
2019-03-15T01:51:22.575Z,7.83
2019-03-15T01:53:51.980Z,9.00
2019-03-15T01:56:21.456Z,10.43
2019-03-15T01:58:50.922Z,9.17
2019-03-15T02:01:20.383Z,8.77
2019-03-15T02:03:49.866Z,10.83
2019-03-15T02:06:19.420Z,15.67
2019-03-15T02:08:48.906Z,9.90
2019-03-15T02:11:18.399Z,9.97
2019-03-15T02:13:47.882Z,11.77
2019-03-15T02:16:17.337Z,9.20
2019-03-15T02:18:46.866Z,12.60
2019-03-15T02:21:16.279Z,13.80
2019-03-15T02:23:45.743Z,9.67
2019-03-15T02:26:15.250Z,8.73
2019-03-15T02:28:44.674Z,12.70
2019-03-15T02:31:14.270Z,14.70
2019-03-15T02:33:43.873Z,13.70
2019-03-15T02:36:13.952Z,11.17
2019-03-15T02:38:43.699Z,9.13
2019-03-15T02:41:13.110Z,11.40
2019-03-15T02:43:42.721Z,11.10
2019-03-15T02:46:12.139Z,12.43
2019-03-15T02:48:41.651Z,13.33
2019-03-15T02:51:11.197Z,11.00
2019-03-15T02:53:40.671Z,13.67
2019-03-15T02:56:10.172Z,9.60
2019-03-15T02:58:39.711Z,14.10
2019-03-15T03:01:09.149Z,17.57
2019-03-15T03:03:40.679Z,14.17
2019-03-15T03:06:09.941Z,10.23
2019-03-15T03:08:39.362Z,13.67
2019-03-15T03:11:08.794Z,14.87
2019-03-15T03:13:38.191Z,17.10
2019-03-15T03:16:07.667Z,14.40
2019-03-15T03:18:37.124Z,11.13
2019-03-15T03:21:06.562Z,16.97
2019-03-15T03:23:36.115Z,14.47
2019-03-15T03:26:05.627Z,22.30
2019-03-15T03:28:35.135Z,12.97
2019-03-15T03:31:04.712Z,13.37
2019-03-15T03:33:34.416Z,10.50
2019-03-15T03:36:03.887Z,14.57
2019-03-15T03:38:33.381Z,13.60
2019-03-15T03:41:02.934Z,13.70
2019-03-15T03:43:32.314Z,15.60
2019-03-15T03:46:01.860Z,13.57
2019-03-15T03:48:31.358Z,14.30
2019-03-15T03:51:00.870Z,11.63
2019-03-15T03:53:30.430Z,14.00
2019-03-15T03:56:00.031Z,14.30
2019-03-15T03:58:29.440Z,11.50
2019-03-15T04:00:58.931Z,11.43
2019-03-15T04:03:28.494Z,10.33
2019-03-15T04:05:58.066Z,7.70
2019-03-15T04:08:27.520Z,8.47
2019-03-15T04:10:57.022Z,8.27
2019-03-15T04:13:26.556Z,6.50
2019-03-15T04:15:56.127Z,6.37
2019-03-15T04:18:25.560Z,6.80
2019-03-15T04:20:55.142Z,6.67
2019-03-15T04:23:24.641Z,6.73
2019-03-15T04:25:54.170Z,5.40
2019-03-15T04:28:23.692Z,7.43
2019-03-15T04:30:53.251Z,7.60
2019-03-15T04:33:22.837Z,13.43
2019-03-15T04:35:52.366Z,20.63
2019-03-15T04:38:21.806Z,14.00
2019-03-15T04:40:51.338Z,18.57
2019-03-15T04:43:20.889Z,26.80
2019-03-15T04:45:50.348Z,27.33
2019-03-15T04:48:19.835Z,24.27
2019-03-15T04:50:49.311Z,29.80
2019-03-15T04:53:18.815Z,27.50
2019-03-15T04:55:48.398Z,22.40
2019-03-15T04:58:17.937Z,32.20
2019-03-15T05:00:47.585Z,26.33
2019-03-15T05:03:17.059Z,29.37
2019-03-15T05:05:46.621Z,30.27
2019-03-15T05:08:16.354Z,32.90
2019-03-15T05:10:45.838Z,37.93
2019-03-15T05:13:15.402Z,26.23
2019-03-15T05:15:44.954Z,28.47
2019-03-15T05:18:14.424Z,31.03
2019-03-15T05:20:43.835Z,35.23
2019-03-15T05:23:13.376Z,30.67
2019-03-15T05:25:42.844Z,31.47
2019-03-15T05:28:12.290Z,34.40
2019-03-15T05:30:41.722Z,37.77
2019-03-15T05:33:11.134Z,39.37
2019-03-15T05:35:40.628Z,36.23
2019-03-15T05:38:09.980Z,38.10
2019-03-15T05:40:39.438Z,51.57
2019-03-15T05:43:08.902Z,42.33
2019-03-15T05:45:38.222Z,40.50
2019-03-15T05:48:07.555Z,48.53
2019-03-15T05:50:36.912Z,39.63
2019-03-15T05:53:06.407Z,50.60
2019-03-15T05:55:35.810Z,49.37
2019-03-15T05:58:05.209Z,42.70
2019-03-15T06:00:34.481Z,46.97
2019-03-15T06:03:03.878Z,32.00
2019-03-15T06:05:33.295Z,47.43
2019-03-15T06:08:02.733Z,41.30
2019-03-15T06:10:32.032Z,44.27
2019-03-15T06:13:01.472Z,37.10
2019-03-15T06:15:31.012Z,38.37
2019-03-15T06:18:00.472Z,36.13
2019-03-15T06:20:29.890Z,46.70
2019-03-15T06:22:59.237Z,38.60
2019-03-15T06:25:28.707Z,39.90
2019-03-15T06:27:58.198Z,44.53
2019-03-15T06:30:27.688Z,43.77
2019-03-15T06:32:57.135Z,35.50
2019-03-15T06:35:26.539Z,33.40
2019-03-15T06:37:55.973Z,32.60
2019-03-15T06:40:25.492Z,30.50
2019-03-15T06:42:54.886Z,38.07
2019-03-15T06:45:24.360Z,27.60
2019-03-15T06:47:53.853Z,27.90
2019-03-15T06:50:23.391Z,34.33
2019-03-15T06:52:52.889Z,37.10
2019-03-15T06:55:22.287Z,30.20
2019-03-15T06:57:51.691Z,27.10
2019-03-15T07:00:21.124Z,33.63
2019-03-15T07:02:50.601Z,35.70
2019-03-15T07:05:20.643Z,35.33
2019-03-15T07:07:50.306Z,33.17
2019-03-15T07:10:19.667Z,34.73
2019-03-15T07:12:49.157Z,32.40
2019-03-15T07:15:18.576Z,29.40
2019-03-15T07:17:48.167Z,27.50
2019-03-15T07:20:17.609Z,28.90
2019-03-15T07:22:47.037Z,27.67
2019-03-15T07:25:16.423Z,30.53
2019-03-15T07:27:45.725Z,35.30
2019-03-15T07:30:15.053Z,35.80
2019-03-15T07:32:44.472Z,29.50
2019-03-15T07:35:13.795Z,29.90
2019-03-15T07:37:45.527Z,37.03
2019-03-15T07:40:14.216Z,37.13
2019-03-15T07:42:43.591Z,34.57
2019-03-15T07:45:13.112Z,30.93
2019-03-15T07:47:42.418Z,29.83
2019-03-15T07:50:14.572Z,27.50
2019-03-15T07:52:44.243Z,23.37
2019-03-15T07:55:13.619Z,26.90
2019-03-15T07:57:43.221Z,34.07
2019-03-15T08:00:13.348Z,28.63
2019-03-15T08:02:42.774Z,29.07
2019-03-15T08:05:12.468Z,30.20
2019-03-15T08:07:45.313Z,29.87
2019-03-15T08:10:12.867Z,25.50
2019-03-15T08:12:42.551Z,25.67
2019-03-15T08:15:11.998Z,22.30
2019-03-15T08:17:41.490Z,31.13
2019-03-15T08:20:10.983Z,27.23
2019-03-15T08:22:40.363Z,26.53
2019-03-15T08:25:10.894Z,24.27
2019-03-15T08:27:40.215Z,25.90
2019-03-15T08:30:11.420Z,26.53
2019-03-15T08:32:43.373Z,23.60
2019-03-15T08:35:11.900Z,22.90
2019-03-15T08:37:41.275Z,25.20
2019-03-15T08:40:11.791Z,18.00
2019-03-15T08:42:41.447Z,25.53
2019-03-15T08:45:12.784Z,21.50
2019-03-15T08:47:42.155Z,20.17
2019-03-15T08:50:15.020Z,26.80
2019-03-15T08:52:44.019Z,25.43
2019-03-15T08:55:13.518Z,18.93
2019-03-15T08:57:43.043Z,19.57
2019-03-15T09:00:12.732Z,20.33
2019-03-15T09:02:42.144Z,20.67
2019-03-15T09:05:11.587Z,19.83
2019-03-15T09:07:41.027Z,20.90
2019-03-15T09:10:22.006Z,26.10
2019-03-15T09:12:41.558Z,21.37
2019-03-15T09:15:11.055Z,22.87
2019-03-15T09:17:40.477Z,21.27
2019-03-15T09:20:10.048Z,17.53
2019-03-15T09:22:40.441Z,21.33
2019-03-15T09:25:19.386Z,14.03
2019-03-15T09:27:41.090Z,14.90
2019-03-15T09:30:22.569Z,14.50
2019-03-15T09:32:41.732Z,14.47
2019-03-15T09:35:11.223Z,16.83
2019-03-15T09:37:40.718Z,16.80
2019-03-15T09:40:10.699Z,16.43
2019-03-15T09:42:40.083Z,14.80
2019-03-15T09:45:10.409Z,14.47
2019-03-15T09:47:39.840Z,13.57
2019-03-15T09:50:21.209Z,12.20
2019-03-15T09:52:41.819Z,13.07
2019-03-15T09:55:11.405Z,13.33
2019-03-15T09:57:40.924Z,15.60
2019-03-15T10:00:13.346Z,15.20
2019-03-15T10:02:42.822Z,17.37
2019-03-15T10:05:12.315Z,15.27
2019-03-15T10:07:43.319Z,16.10
2019-03-15T10:10:14.209Z,15.10
2019-03-15T10:12:44.264Z,16.10
2019-03-15T10:15:13.613Z,14.83
2019-03-15T10:17:43.103Z,13.30
2019-03-15T10:20:13.013Z,10.60
2019-03-15T10:22:42.356Z,13.97
2019-03-15T10:25:11.811Z,12.50
2019-03-15T10:27:41.401Z,13.33
2019-03-15T10:30:12.379Z,13.67
2019-03-15T10:32:41.704Z,13.73
2019-03-15T10:35:12.345Z,10.73
2019-03-15T10:37:41.830Z,11.90
2019-03-15T10:40:13.515Z,10.50
2019-03-15T10:42:43.057Z,12.10
2019-03-15T10:45:12.601Z,12.83
2019-03-15T10:47:42.802Z,15.83
2019-03-15T10:50:12.759Z,18.13
2019-03-15T10:52:42.139Z,9.67
2019-03-15T10:55:12.705Z,10.23
2019-03-15T10:57:42.121Z,15.10
2019-03-15T11:00:13.244Z,14.17
2019-03-15T11:02:42.829Z,13.63
2019-03-15T11:05:12.238Z,12.03
2019-03-15T11:07:41.654Z,13.97
2019-03-15T11:10:11.349Z,15.33
2019-03-15T11:12:40.779Z,17.00
2019-03-15T11:15:10.168Z,11.80
2019-03-15T11:17:39.475Z,15.77
2019-03-15T11:20:09.126Z,21.30
2019-03-15T11:22:38.534Z,15.47
2019-03-15T11:25:07.986Z,16.37
2019-03-15T11:27:37.291Z,12.90
2019-03-15T11:30:06.923Z,19.57
2019-03-15T11:32:36.305Z,14.73
2019-03-15T11:35:06.417Z,15.17
2019-03-15T11:37:35.910Z,13.07
2019-03-15T11:40:06.210Z,13.87
2019-03-15T11:42:35.879Z,14.97
2019-03-15T11:45:05.579Z,14.83
2019-03-15T11:47:50.283Z,17.33
2019-03-15T11:50:06.515Z,14.70
2019-03-15T11:52:35.892Z,11.73
2019-03-15T11:55:05.872Z,13.47
2019-03-15T11:57:35.304Z,16.47
2019-03-15T12:00:05.481Z,14.80
2019-03-15T12:02:34.777Z,15.23
2019-03-15T12:05:05.095Z,15.07
2019-03-15T12:07:34.988Z,17.80
2019-03-15T12:10:04.778Z,18.57
2019-03-15T12:12:34.105Z,19.37
2019-03-15T12:15:03.540Z,16.83
2019-03-15T12:17:32.950Z,17.70
2019-03-15T12:20:02.420Z,16.57
2019-03-15T12:22:32.000Z,20.33
2019-03-15T12:25:01.382Z,17.80
2019-03-15T12:27:31.855Z,14.63
2019-03-15T12:30:01.317Z,16.73
2019-03-15T12:32:30.655Z,16.87
2019-03-15T12:35:01.646Z,15.47
2019-03-15T12:37:31.117Z,15.20
2019-03-15T12:40:00.643Z,18.60
2019-03-15T12:42:30.141Z,20.70
2019-03-15T12:44:59.490Z,11.27
2019-03-15T12:47:28.894Z,12.83
2019-03-15T12:49:58.165Z,19.27
2019-03-15T12:52:27.617Z,17.73
2019-03-15T12:54:57.034Z,21.47
2019-03-15T12:57:26.497Z,14.87
2019-03-15T12:59:56.095Z,15.83
2019-03-15T13:02:25.678Z,17.00
2019-03-15T13:04:55.146Z,17.60
2019-03-15T13:07:24.450Z,16.40
2019-03-15T13:09:54.363Z,18.67
2019-03-15T13:12:23.962Z,17.93
2019-03-15T13:14:53.359Z,12.30
2019-03-15T13:17:22.814Z,21.77
2019-03-15T13:19:55.424Z,21.10
2019-03-15T13:22:23.218Z,23.00
2019-03-15T13:24:52.725Z,21.47
2019-03-15T13:27:22.062Z,23.63
2019-03-15T13:29:51.612Z,17.53
2019-03-15T13:32:20.937Z,15.90
2019-03-15T13:34:50.398Z,22.77
2019-03-15T13:37:20.090Z,21.37
2019-03-15T13:39:49.463Z,20.00
2019-03-15T13:42:18.974Z,18.23
2019-03-15T13:44:48.379Z,21.93
2019-03-15T13:47:18.082Z,23.20
2019-03-15T13:49:47.471Z,20.60
2019-03-15T13:52:16.816Z,22.43
2019-03-15T13:54:46.297Z,18.63
2019-03-15T13:57:21.049Z,20.67
2019-03-15T13:59:46.954Z,25.70
2019-03-15T14:02:16.425Z,47.57
2019-03-15T14:04:45.755Z,27.63
2019-03-15T14:07:15.175Z,17.80
2019-03-15T14:09:44.542Z,19.43
2019-03-15T14:12:13.942Z,20.00
2019-03-15T14:14:43.292Z,21.70
2019-03-15T14:17:12.634Z,22.30
2019-03-15T14:19:42.142Z,23.00
2019-03-15T14:22:11.580Z,26.97
2019-03-15T14:24:40.999Z,25.03
2019-03-15T14:27:10.402Z,23.40
2019-03-15T14:29:39.784Z,19.83
2019-03-15T14:32:09.121Z,25.07
2019-03-15T14:34:38.428Z,23.63
2019-03-15T14:37:10.169Z,21.87
2019-03-15T14:39:39.014Z,20.30
2019-03-15T14:42:08.531Z,19.93
2019-03-15T14:44:38.041Z,20.77
2019-03-15T14:47:07.461Z,20.13
2019-03-15T14:49:38.318Z,21.70
2019-03-15T14:52:07.808Z,23.77
2019-03-15T14:54:37.380Z,19.87
2019-03-15T14:57:06.777Z,25.60
2019-03-15T14:59:36.192Z,28.73
2019-03-15T15:02:05.601Z,18.43
2019-03-15T15:04:35.092Z,24.23
2019-03-15T15:07:04.486Z,16.20
2019-03-15T15:09:34.095Z,22.40
2019-03-15T15:12:03.598Z,22.60
2019-03-15T15:14:33.030Z,23.27
2019-03-15T15:17:04.754Z,18.70
2019-03-15T15:19:33.561Z,23.13
2019-03-15T15:22:02.909Z,19.77
2019-03-15T15:24:32.617Z,18.20
2019-03-15T15:27:02.082Z,25.63
2019-03-15T15:29:31.616Z,15.47
2019-03-15T15:32:01.023Z,17.27
2019-03-15T15:34:30.490Z,18.93
2019-03-15T15:37:02.580Z,24.77
2019-03-15T15:39:32.087Z,20.27
2019-03-15T15:42:01.465Z,20.90
2019-03-15T15:44:30.739Z,19.30
2019-03-15T15:47:00.117Z,17.00
2019-03-15T15:49:29.519Z,19.67
2019-03-15T15:51:59.044Z,21.90
2019-03-15T15:54:28.729Z,22.90
2019-03-15T15:56:58.173Z,19.30
2019-03-15T15:59:27.678Z,16.73
2019-03-15T16:01:57.154Z,17.33
2019-03-15T16:04:26.573Z,17.47
2019-03-15T16:06:55.984Z,19.50
2019-03-15T16:09:25.475Z,22.00
2019-03-15T16:11:54.730Z,20.27
2019-03-15T16:14:24.096Z,19.17
2019-03-15T16:16:53.858Z,20.37
2019-03-15T16:19:23.214Z,20.27
2019-03-15T16:21:52.569Z,18.73
2019-03-15T16:24:22.242Z,23.83
2019-03-15T16:26:51.569Z,17.43
2019-03-15T16:29:21.055Z,22.53
2019-03-15T16:31:50.345Z,16.03
2019-03-15T16:34:21.996Z,22.10
2019-03-15T16:36:50.932Z,22.30
2019-03-15T16:39:20.363Z,18.00
2019-03-15T16:41:49.946Z,17.47
2019-03-15T16:44:19.492Z,20.63
2019-03-15T16:46:48.822Z,22.07
2019-03-15T16:49:18.367Z,20.13
2019-03-15T16:51:47.835Z,21.67
2019-03-15T16:54:17.271Z,23.13
2019-03-15T16:56:47.011Z,21.70
2019-03-15T16:59:16.408Z,14.93
2019-03-15T17:01:45.850Z,22.33
2019-03-15T17:04:15.436Z,21.43
2019-03-15T17:06:44.793Z,16.33
2019-03-15T17:09:14.241Z,16.77
2019-03-15T17:11:43.632Z,16.57
2019-03-15T17:14:25.136Z,23.47
2019-03-15T17:16:44.363Z,21.00
2019-03-15T17:19:13.771Z,19.07
2019-03-15T17:21:43.125Z,25.53
2019-03-15T17:24:12.559Z,23.47
2019-03-15T17:26:42.072Z,23.13
2019-03-15T17:29:11.439Z,22.27
2019-03-15T17:31:40.935Z,29.70
2019-03-15T17:34:10.596Z,27.60
2019-03-15T17:36:39.941Z,21.53
2019-03-15T17:39:09.329Z,30.80
2019-03-15T17:41:38.786Z,23.20
2019-03-15T17:44:08.173Z,23.13
2019-03-15T17:46:37.627Z,23.17
2019-03-15T17:49:06.943Z,22.50
2019-03-15T17:51:36.588Z,24.87
2019-03-15T17:54:06.390Z,26.27
2019-03-15T17:56:35.852Z,25.20
2019-03-15T17:59:12.237Z,18.33
2019-03-15T18:01:36.625Z,24.80
2019-03-15T18:04:06.239Z,24.70
2019-03-15T18:06:35.752Z,30.67
2019-03-15T18:09:06.436Z,33.57
2019-03-15T18:11:35.885Z,29.43
2019-03-15T18:14:05.284Z,30.20
2019-03-15T18:16:34.667Z,29.53
2019-03-15T18:19:04.143Z,26.13
2019-03-15T18:21:33.470Z,27.60
2019-03-15T18:24:02.930Z,27.87
2019-03-15T18:26:32.351Z,34.63
2019-03-15T18:29:01.796Z,35.23
2019-03-15T18:31:31.275Z,24.53
2019-03-15T18:34:00.708Z,22.23
2019-03-15T18:36:30.074Z,27.00
2019-03-15T18:39:01.584Z,25.33
2019-03-15T18:41:31.046Z,26.23
2019-03-15T18:44:00.430Z,23.50
2019-03-15T18:46:29.811Z,20.73
2019-03-15T18:48:59.121Z,24.77
2019-03-15T18:51:28.757Z,20.13
2019-03-15T18:53:58.036Z,17.23
2019-03-15T18:56:27.611Z,19.50
2019-03-15T18:58:57.136Z,16.07
2019-03-15T19:01:26.494Z,23.90
2019-03-15T19:03:55.915Z,24.30
2019-03-15T19:06:25.261Z,18.00
2019-03-15T19:08:54.580Z,16.17
2019-03-15T19:11:24.063Z,18.60
2019-03-15T19:13:53.536Z,14.70
2019-03-15T19:16:23.110Z,20.53
2019-03-15T19:18:52.538Z,15.33
2019-03-15T19:21:22.101Z,18.63
2019-03-15T19:23:51.820Z,19.70
2019-03-15T19:26:21.346Z,15.73
2019-03-15T19:28:50.733Z,19.37
2019-03-15T19:31:20.251Z,15.67
2019-03-15T19:33:49.747Z,20.03
2019-03-15T19:36:19.324Z,18.70
2019-03-15T19:38:48.883Z,20.93
2019-03-15T19:41:18.461Z,18.10
2019-03-15T19:43:47.884Z,23.70
2019-03-15T19:46:17.385Z,19.10
2019-03-15T19:48:46.906Z,22.10
2019-03-15T19:51:16.352Z,22.03
2019-03-15T19:53:45.799Z,19.50
2019-03-15T19:56:15.258Z,22.90
2019-03-15T19:58:44.860Z,26.00
2019-03-15T20:01:14.347Z,22.73
2019-03-15T20:03:44.499Z,24.50
2019-03-15T20:06:14.255Z,27.97
2019-03-15T20:08:43.905Z,27.80
2019-03-15T20:11:13.369Z,23.57
2019-03-15T20:13:42.801Z,23.67
2019-03-15T20:16:12.314Z,32.40
2019-03-15T20:18:41.774Z,29.50
2019-03-15T20:21:11.260Z,29.53
2019-03-15T20:23:40.708Z,29.33
2019-03-15T20:26:10.155Z,27.10
2019-03-15T20:28:39.737Z,21.37
2019-03-15T20:31:09.176Z,25.33
2019-03-15T20:33:38.809Z,24.27
2019-03-15T20:36:08.295Z,25.83
2019-03-15T20:38:37.748Z,23.07
2019-03-15T20:41:07.348Z,25.97
2019-03-15T20:43:37.122Z,26.83
2019-03-15T20:46:06.674Z,24.27
2019-03-15T20:48:36.155Z,25.37
2019-03-15T20:51:05.651Z,23.53
2019-03-15T20:53:35.186Z,23.20
2019-03-15T20:56:04.837Z,27.77
2019-03-15T20:58:34.313Z,23.87
2019-03-15T21:01:03.818Z,19.87
2019-03-15T21:03:33.275Z,22.93
2019-03-15T21:06:02.715Z,27.10
2019-03-15T21:08:32.283Z,23.83
2019-03-15T21:11:01.660Z,23.27
2019-03-15T21:13:33.771Z,27.93
2019-03-15T21:16:02.288Z,26.33
2019-03-15T21:18:31.742Z,22.63
2019-03-15T21:21:01.313Z,25.20
2019-03-15T21:23:30.805Z,27.50
2019-03-15T21:26:00.253Z,20.00
2019-03-15T21:28:29.679Z,30.20
2019-03-15T21:30:59.268Z,24.30
2019-03-15T21:33:28.876Z,27.40
2019-03-15T21:35:58.473Z,37.30
2019-03-15T21:38:27.970Z,32.60
2019-03-15T21:40:57.417Z,28.70
2019-03-15T21:43:26.883Z,27.87
2019-03-15T21:45:56.397Z,33.27
2019-03-15T21:48:25.886Z,26.80
2019-03-15T21:50:55.325Z,26.27
2019-03-15T21:53:24.787Z,26.33
2019-03-15T21:55:54.256Z,33.43
2019-03-15T21:58:23.582Z,28.13
2019-03-15T22:01:02.342Z,24.73
2019-03-15T22:03:24.031Z,30.57
2019-03-15T22:05:53.961Z,28.00
2019-03-15T22:08:23.454Z,37.03
2019-03-15T22:10:53.071Z,32.57
2019-03-15T22:13:22.494Z,24.20
2019-03-15T22:15:51.905Z,24.80
2019-03-15T22:18:21.323Z,25.63
2019-03-15T22:20:50.703Z,27.10
2019-03-15T22:23:19.985Z,24.23
2019-03-15T22:25:49.446Z,18.70
2019-03-15T22:28:18.855Z,18.77
2019-03-15T22:30:48.306Z,18.33
2019-03-15T22:33:17.820Z,16.17
2019-03-15T22:35:49.129Z,22.20
2019-03-15T22:38:26.244Z,14.70
2019-03-15T22:40:49.551Z,12.67
2019-03-15T22:43:18.997Z,13.77
2019-03-15T22:45:48.324Z,16.80
2019-03-15T22:48:17.850Z,10.13
2019-03-15T22:50:47.130Z,13.67
2019-03-15T22:53:16.667Z,15.50
2019-03-15T22:55:46.120Z,23.80
2019-03-15T22:58:15.597Z,23.90
2019-03-15T23:00:46.636Z,25.03
2019-03-15T23:03:16.040Z,23.10
2019-03-15T23:05:45.620Z,28.70
2019-03-15T23:08:15.155Z,30.07
2019-03-15T23:10:46.997Z,41.30
2019-03-15T23:13:15.717Z,32.00
2019-03-15T23:15:45.039Z,36.50
2019-03-15T23:18:14.450Z,27.17
2019-03-15T23:20:43.954Z,30.47
2019-03-15T23:23:23.227Z,33.30
2019-03-15T23:25:44.554Z,35.33
2019-03-15T23:28:14.196Z,29.30
2019-03-15T23:30:43.552Z,30.13
2019-03-15T23:33:12.923Z,32.10
2019-03-15T23:35:53.597Z,28.17
2019-03-15T23:38:13.407Z,30.77
2019-03-15T23:40:42.783Z,26.40
2019-03-15T23:43:12.309Z,24.70
2019-03-15T23:45:41.725Z,23.23
2019-03-15T23:48:11.160Z,23.53
2019-03-15T23:50:40.756Z,25.70
2019-03-15T23:53:10.143Z,23.33
2019-03-15T23:55:39.519Z,23.07
2019-03-15T23:58:08.891Z,28.83
